createdAt,value
2022-10-06T00:02:23.194Z,101485.34
2022-10-06T00:04:52.423Z,101494.66
2022-10-06T00:07:27.411Z,101483.94
2022-10-06T00:09:56.090Z,101489.03
2022-10-06T00:12:25.972Z,101493.56
2022-10-06T00:14:54.467Z,101492.06
2022-10-06T00:17:23.124Z,101475.97
2022-10-06T00:19:52.156Z,101485.25
2022-10-06T00:22:20.809Z,101476.47
2022-10-06T00:24:49.438Z,101482.31
2022-10-06T00:27:17.826Z,101476.00
2022-10-06T00:29:47.740Z,101478.19
2022-10-06T00:32:16.662Z,101470.94
2022-10-06T00:34:45.383Z,101470.56
2022-10-06T00:37:14.046Z,101488.34
2022-10-06T00:39:43.499Z,101477.06
2022-10-06T00:42:24.694Z,101481.38
2022-10-06T00:44:54.940Z,101489.59
2022-10-06T00:50:46.546Z,101495.44
2022-10-06T00:53:16.404Z,101485.28
2022-10-06T00:55:44.889Z,101499.75
2022-10-06T00:58:15.494Z,101487.91
2022-10-06T01:00:47.117Z,101489.97
2022-10-06T01:03:22.957Z,101487.25
2022-10-06T01:05:54.450Z,101486.69
2022-10-06T01:08:25.105Z,101497.06
2022-10-06T01:10:53.774Z,101486.22
2022-10-06T01:13:22.977Z,101492.06
2022-10-06T01:15:58.845Z,101501.84
2022-10-06T01:18:57.280Z,101521.38
2022-10-06T01:47:05.178Z,101520.16
2022-10-06T01:49:38.753Z,101544.72
2022-10-06T01:55:21.618Z,101516.22
2022-10-06T01:57:52.487Z,101510.44
2022-10-06T02:00:30.238Z,101508.00
2022-10-06T02:03:11.266Z,101498.09
2022-10-06T02:05:43.784Z,101502.44
2022-10-06T02:08:14.974Z,101499.59
2022-10-06T02:10:48.128Z,101506.00
2022-10-06T02:13:22.919Z,101505.25
2022-10-06T02:15:55.863Z,101489.31
2022-10-06T02:18:24.593Z,101486.78
2022-10-06T02:21:00.651Z,101488.41
2022-10-06T02:23:33.379Z,101485.69
2022-10-06T02:26:08.644Z,101485.84
2022-10-06T02:28:37.708Z,101488.47
2022-10-06T02:31:09.476Z,101491.34
2022-10-06T02:33:39.269Z,101490.78
2022-10-06T02:36:11.577Z,101498.50
2022-10-06T02:38:41.827Z,101500.78
2022-10-06T02:41:11.799Z,101489.06
2022-10-06T02:43:41.270Z,101490.28
2022-10-06T02:46:12.795Z,101492.19
2022-10-06T02:48:46.837Z,101490.28
2022-10-06T02:51:18.254Z,101490.56
2022-10-06T02:53:49.850Z,101491.31
2022-10-06T02:56:21.304Z,101490.28
2022-10-06T02:58:51.265Z,101492.25
2022-10-06T03:01:21.875Z,101487.72
2022-10-06T03:03:50.526Z,101479.59
2022-10-06T03:06:25.388Z,101492.81
2022-10-06T03:09:12.926Z,101490.56
2022-10-06T03:14:43.611Z,101495.63
2022-10-06T03:17:26.053Z,101499.53
2022-10-06T03:20:02.725Z,101502.91
2022-10-06T03:22:53.430Z,101501.22
2022-10-06T03:25:26.470Z,101488.66
2022-10-06T03:28:17.858Z,101494.34
2022-10-06T03:30:46.707Z,101501.47
2022-10-06T03:33:15.201Z,101487.97
2022-10-06T03:35:50.848Z,101515.91
2022-10-06T03:38:23.330Z,101487.78
2022-10-06T03:40:53.832Z,101492.88
2022-10-06T03:43:22.353Z,101493.63
2022-10-06T03:45:58.032Z,101488.03
2022-10-06T03:48:27.245Z,101488.44
2022-10-06T03:51:00.798Z,101490.88
2022-10-06T03:53:33.843Z,101490.25
2022-10-06T03:56:04.452Z,101496.53
2022-10-06T03:58:42.200Z,101492.06
2022-10-06T04:01:15.055Z,101491.88
2022-10-06T04:03:44.595Z,101505.84
2022-10-06T04:06:31.670Z,101505.66
2022-10-06T04:09:23.631Z,101501.31
2022-10-06T04:11:52.775Z,101509.59
2022-10-06T04:14:21.309Z,101505.72
2022-10-06T04:16:51.285Z,101520.06
2022-10-06T04:19:19.983Z,101504.03
2022-10-06T04:21:49.216Z,101522.59
2022-10-06T04:24:19.134Z,101514.91
2022-10-06T04:26:49.140Z,101536.28
2022-10-06T04:29:17.986Z,101533.41
2022-10-06T04:31:47.327Z,101537.97
2022-10-06T04:34:15.686Z,101540.63
2022-10-06T04:36:44.872Z,101547.59
2022-10-06T04:39:14.278Z,101535.75
2022-10-06T04:41:47.638Z,101536.41
2022-10-06T04:44:16.382Z,101555.69
2022-10-06T04:46:45.439Z,101548.31
2022-10-06T04:49:19.587Z,101538.56
2022-10-06T04:51:49.743Z,101531.59
2022-10-06T04:54:18.783Z,101542.25
2022-10-06T04:56:49.233Z,101564.56
2022-10-06T04:59:17.840Z,101558.53
2022-10-06T05:01:47.385Z,101561.66
2022-10-06T05:05:10.868Z,101569.34
2022-10-06T05:07:40.393Z,101574.06
2022-10-06T05:10:09.695Z,101582.78
2022-10-06T05:12:39.683Z,101574.94
2022-10-06T05:15:10.727Z,101574.28
2022-10-06T05:17:39.391Z,101580.53
2022-10-06T05:20:11.166Z,101573.81
2022-10-06T05:22:39.616Z,101586.56
2022-10-06T05:25:08.596Z,101585.91
2022-10-06T05:27:38.766Z,101603.66
2022-10-06T05:30:07.861Z,101603.28
2022-10-06T05:32:36.462Z,101601.56
2022-10-06T05:35:07.285Z,101613.56
2022-10-06T05:37:36.044Z,101620.66
2022-10-06T05:40:05.364Z,101618.63
2022-10-06T05:42:44.600Z,101629.19
2022-10-06T05:45:14.829Z,101636.25
2022-10-06T05:47:43.131Z,101645.69
2022-10-06T05:50:11.755Z,101637.59
2022-10-06T05:52:40.672Z,101634.09
2022-10-06T05:55:10.523Z,101669.78
2022-10-06T05:57:38.773Z,101638.56
2022-10-06T06:00:09.679Z,101633.94
2022-10-06T06:02:39.878Z,101635.28
2022-10-06T06:05:10.085Z,101647.66
2022-10-06T06:07:38.866Z,101641.69
2022-10-06T06:10:07.975Z,101666.22
2022-10-06T06:12:36.775Z,101657.53
2022-10-06T06:15:23.134Z,101669.41
2022-10-06T06:18:25.437Z,101678.19
2022-10-06T06:20:59.332Z,101679.81
2022-10-06T06:23:33.841Z,101685.00
2022-10-06T06:26:04.516Z,101681.03
2022-10-06T06:28:34.223Z,101686.88
2022-10-06T06:31:07.451Z,101690.47
2022-10-06T06:33:38.137Z,101685.56
2022-10-06T06:36:15.043Z,101685.19
2022-10-06T06:38:47.963Z,101678.97
2022-10-06T06:41:17.941Z,101688.00
2022-10-06T06:43:46.326Z,101685.56
2022-10-06T06:46:17.414Z,101679.69
2022-10-06T06:48:47.386Z,101677.81
2022-10-06T06:51:17.607Z,101685.06
2022-10-06T06:53:46.044Z,101696.31
2022-10-06T06:56:15.121Z,101689.88
2022-10-06T06:58:47.599Z,101693.19
2022-10-06T07:01:18.201Z,101705.06
2022-10-06T07:04:03.651Z,101691.66
2022-10-06T07:06:36.895Z,101683.97
2022-10-06T07:09:16.651Z,101687.06
2022-10-06T07:11:52.932Z,101685.84
2022-10-06T07:14:24.838Z,101690.25
2022-10-06T07:17:10.663Z,101699.13
2022-10-06T07:19:52.784Z,101697.38
2022-10-06T07:22:42.850Z,101696.94
2022-10-06T07:25:16.513Z,101703.06
2022-10-06T07:27:52.406Z,101693.81
2022-10-06T07:30:23.906Z,101682.69
2022-10-06T07:32:54.755Z,101689.31
2022-10-06T07:35:27.077Z,101702.03
2022-10-06T07:38:08.201Z,101705.03
2022-10-06T07:40:42.722Z,101698.47
2022-10-06T07:43:20.672Z,101705.59
2022-10-06T07:45:49.925Z,101703.78
2022-10-06T07:48:20.459Z,101705.47
2022-10-06T07:50:51.395Z,101709.84
2022-10-06T07:53:22.079Z,101704.00
2022-10-06T07:55:53.140Z,101708.13
2022-10-06T07:58:24.285Z,101705.28
2022-10-06T08:00:53.910Z,101709.13
2022-10-06T08:03:23.674Z,101729.56
2022-10-06T08:05:59.335Z,101730.81
2022-10-06T08:08:32.956Z,101739.22
2022-10-06T08:11:04.535Z,101744.81
2022-10-06T08:13:33.383Z,101741.03
2022-10-06T08:16:06.075Z,101737.91
2022-10-06T08:18:46.024Z,101739.53
2022-10-06T08:21:17.360Z,101741.63
2022-10-06T08:23:48.938Z,101732.06
2022-10-06T08:26:19.706Z,101736.66
2022-10-06T08:28:50.012Z,101737.03
2022-10-06T08:31:21.396Z,101725.50
2022-10-06T08:33:50.811Z,101739.16
2022-10-06T08:36:20.826Z,101737.56
2022-10-06T08:38:51.409Z,101739.91
2022-10-06T08:41:27.555Z,101740.00
2022-10-06T08:44:02.140Z,101734.50
2022-10-06T08:46:39.069Z,101745.13
2022-10-06T08:49:12.140Z,101742.38
2022-10-06T08:51:54.098Z,101736.56
2022-10-06T08:54:30.843Z,101736.97
2022-10-06T08:57:05.897Z,101727.53
2022-10-06T08:59:36.869Z,101736.91
2022-10-06T09:02:16.674Z,101740.94
2022-10-06T09:04:45.518Z,101732.56
2022-10-06T09:07:17.344Z,101727.16
2022-10-06T09:10:03.247Z,101715.97
2022-10-06T09:12:37.201Z,101717.72
2022-10-06T09:15:21.724Z,101708.91
2022-10-06T09:17:55.943Z,101709.75
2022-10-06T09:20:31.577Z,101703.13
2022-10-06T09:23:02.233Z,101703.41
2022-10-06T09:25:33.021Z,101711.97
2022-10-06T09:28:03.525Z,101705.59
2022-10-06T09:30:32.463Z,101707.22
2022-10-06T09:33:02.220Z,101693.53
2022-10-06T09:35:32.470Z,101690.53
2022-10-06T09:38:09.258Z,101690.38
2022-10-06T09:40:49.181Z,101705.09
2022-10-06T09:43:29.425Z,101721.97
2022-10-06T09:46:18.604Z,101721.56
2022-10-06T09:48:47.228Z,101725.06
2022-10-06T09:51:17.360Z,101726.59
2022-10-06T09:54:05.614Z,101735.81
2022-10-06T09:56:36.545Z,101730.03
2022-10-06T09:59:05.308Z,101739.53
2022-10-06T10:01:34.365Z,101745.63
2022-10-06T10:04:19.945Z,101747.66
2022-10-06T10:06:49.867Z,101746.91
2022-10-06T10:09:29.278Z,101747.75
2022-10-06T10:12:28.276Z,101757.84
2022-10-06T10:15:04.391Z,101762.00
2022-10-06T10:17:44.637Z,101742.13
2022-10-06T10:20:34.466Z,101725.44
2022-10-06T10:23:07.409Z,101713.59
2022-10-06T10:25:59.045Z,101704.38
2022-10-06T10:29:04.678Z,101703.88
2022-10-06T10:31:43.379Z,101693.34
2022-10-06T10:34:25.139Z,101688.81
2022-10-06T10:37:03.770Z,101688.63
2022-10-06T10:39:39.680Z,101683.81
2022-10-06T10:42:20.199Z,101683.38
2022-10-06T10:44:56.936Z,101678.91
2022-10-06T10:47:29.385Z,101671.94
2022-10-06T10:50:04.483Z,101666.25
2022-10-06T10:52:41.625Z,101670.47
2022-10-06T10:55:27.271Z,101662.50
2022-10-06T10:58:00.560Z,101657.63
2022-10-06T11:00:35.527Z,101672.25
2022-10-06T11:03:05.325Z,101656.78
2022-10-06T11:05:51.861Z,101656.47
2022-10-06T11:08:28.952Z,101669.31
2022-10-06T11:11:00.709Z,101651.75
2022-10-06T11:13:34.862Z,101661.41
2022-10-06T11:16:37.520Z,101650.34
2022-10-06T11:19:22.624Z,101645.56
2022-10-06T11:21:59.526Z,101644.69
2022-10-06T11:24:37.794Z,101647.53
2022-10-06T11:27:23.978Z,101647.69
2022-10-06T11:30:04.001Z,101645.28
2022-10-06T11:32:46.667Z,101655.94
2022-10-06T11:35:20.799Z,101636.34
2022-10-06T11:37:57.532Z,101649.66
2022-10-06T11:40:47.930Z,101651.97
2022-10-06T11:43:24.490Z,101628.31
2022-10-06T11:46:02.543Z,101618.31
2022-10-06T11:48:35.277Z,101630.66
2022-10-06T11:51:35.278Z,101634.22
2022-10-06T11:54:04.022Z,101617.31
2022-10-06T11:56:41.631Z,101622.31
2022-10-06T11:59:24.959Z,101623.16
2022-10-06T12:01:56.250Z,101622.59
2022-10-06T12:04:28.252Z,101609.16
2022-10-06T12:07:04.536Z,101596.28
2022-10-06T12:09:41.533Z,101608.47
2022-10-06T12:13:06.755Z,101620.28
2022-10-06T12:19:07.131Z,101579.75
2022-10-06T12:21:46.090Z,101582.44
2022-10-06T12:24:37.084Z,101589.84
2022-10-06T12:27:30.265Z,101584.88
2022-10-06T12:30:05.299Z,101583.38
2022-10-06T12:32:50.916Z,101592.25
2022-10-06T12:35:41.273Z,101594.09
2022-10-06T12:38:44.398Z,101568.38
2022-10-06T12:41:14.177Z,101573.38
2022-10-06T12:43:55.330Z,101591.91
2022-10-06T12:46:45.101Z,101580.94
2022-10-06T12:49:42.571Z,101574.47
2022-10-06T12:52:36.840Z,101578.38
2022-10-06T12:55:34.195Z,101575.81
2022-10-06T12:58:03.155Z,101573.53
2022-10-06T13:00:38.485Z,101564.13
2022-10-06T13:03:10.166Z,101557.22
2022-10-06T13:05:38.610Z,101559.97
2022-10-06T13:08:21.176Z,101562.47
2022-10-06T13:10:54.108Z,101545.44
2022-10-06T13:13:25.096Z,101538.22
2022-10-06T13:16:00.722Z,101539.13
2022-10-06T13:18:32.075Z,101540.22
2022-10-06T13:21:01.924Z,101541.50
2022-10-06T13:23:31.592Z,101536.75
2022-10-06T13:26:03.469Z,101539.72
2022-10-06T13:28:47.818Z,101526.09
2022-10-06T13:31:22.564Z,101539.69
2022-10-06T13:33:55.896Z,101534.94
2022-10-06T13:36:25.049Z,101536.34
2022-10-06T13:38:53.890Z,101541.09
2022-10-06T13:41:29.592Z,101542.28
2022-10-06T13:44:01.397Z,101535.03
2022-10-06T13:46:33.294Z,101536.97
2022-10-06T13:49:06.423Z,101553.19
2022-10-06T13:51:35.173Z,101560.53
2022-10-06T13:54:08.338Z,101561.03
2022-10-06T13:56:41.741Z,101586.41
2022-10-06T13:59:28.141Z,101604.50
2022-10-06T14:01:58.820Z,101623.16
2022-10-06T14:05:04.121Z,101628.00
2022-10-06T14:07:35.290Z,101649.81
2022-10-06T14:10:07.093Z,101656.59
2022-10-06T14:12:48.785Z,101648.75
2022-10-06T14:15:26.414Z,101647.22
2022-10-06T14:17:59.480Z,101656.75
2022-10-06T14:20:58.415Z,101615.75
2022-10-06T14:23:56.895Z,101599.00
2022-10-06T14:26:35.449Z,101571.75
2022-10-06T14:29:14.428Z,101560.97
2022-10-06T14:31:44.424Z,101583.91
2022-10-06T14:34:15.693Z,101575.41
2022-10-06T14:36:47.156Z,101547.72
2022-10-06T14:39:17.966Z,101511.81
2022-10-06T14:41:47.015Z,101501.66
2022-10-06T14:44:17.110Z,101482.47
2022-10-06T14:46:49.630Z,101486.84
2022-10-06T14:49:18.767Z,101483.16
2022-10-06T14:51:47.824Z,101491.25
2022-10-06T14:54:19.506Z,101475.63
2022-10-06T14:56:53.670Z,101487.84
2022-10-06T14:59:25.306Z,101489.91
2022-10-06T15:01:54.428Z,101493.16
2022-10-06T15:04:27.819Z,101511.94
2022-10-06T15:07:14.567Z,101513.13
2022-10-06T15:09:43.087Z,101488.25
2022-10-06T15:12:11.460Z,101479.22
2022-10-06T15:14:41.428Z,101486.31
2022-10-06T15:17:09.884Z,101472.81
2022-10-06T15:19:40.876Z,101457.28
2022-10-06T15:22:10.406Z,101453.63
2022-10-06T15:24:39.047Z,101460.00
2022-10-06T15:27:25.387Z,101448.94
2022-10-06T15:29:57.677Z,101456.91
2022-10-06T15:32:26.648Z,101466.38
2022-10-06T15:34:55.613Z,101476.94
2022-10-06T15:37:24.086Z,101477.88
2022-10-06T15:39:53.464Z,101471.56
2022-10-06T15:42:24.654Z,101474.38
2022-10-06T15:44:53.379Z,101469.69
2022-10-06T15:47:24.015Z,101470.94
2022-10-06T15:49:52.565Z,101467.97
2022-10-06T15:52:20.973Z,101453.50
2022-10-06T15:54:50.072Z,101456.69
2022-10-06T15:57:21.160Z,101465.19
2022-10-06T15:59:50.527Z,101462.81
2022-10-06T16:02:20.591Z,101459.72
2022-10-06T16:05:18.788Z,101453.91
2022-10-06T16:07:49.269Z,101466.16
2022-10-06T16:10:51.630Z,101465.31
2022-10-06T16:13:27.283Z,101447.75
2022-10-06T16:16:03.470Z,101447.19
2022-10-06T16:18:39.913Z,101438.00
2022-10-06T16:21:22.222Z,101431.38
2022-10-06T16:24:17.738Z,101435.56
2022-10-06T16:30:15.804Z,101429.81
2022-10-06T16:33:06.782Z,101429.66
2022-10-06T16:35:50.722Z,101425.72
2022-10-06T16:38:40.282Z,101423.59
2022-10-06T16:41:14.829Z,101435.28
2022-10-06T16:43:48.507Z,101431.66
2022-10-06T16:46:29.728Z,101451.19
2022-10-06T16:49:03.749Z,101434.03
2022-10-06T16:51:41.347Z,101467.91
2022-10-06T16:54:16.095Z,101469.31
2022-10-06T16:57:05.460Z,101467.22
2022-10-06T16:59:46.880Z,101467.28
2022-10-06T17:02:18.516Z,101465.44
2022-10-06T17:05:02.112Z,101470.19
2022-10-06T17:07:47.620Z,101470.03
2022-10-06T17:10:21.230Z,101464.16
2022-10-06T17:12:50.079Z,101464.09
2022-10-06T17:15:18.642Z,101452.72
2022-10-06T17:17:47.253Z,101453.91
2022-10-06T17:20:17.200Z,101445.44
2022-10-06T17:22:45.744Z,101443.38
2022-10-06T17:25:14.508Z,101441.41
2022-10-06T17:27:44.860Z,101449.66
2022-10-06T17:30:15.643Z,101440.81
2022-10-06T17:32:45.283Z,101440.63
2022-10-06T17:35:14.268Z,101441.84
2022-10-06T17:37:43.087Z,101437.13
2022-10-06T17:40:11.881Z,101433.22
2022-10-06T17:42:41.881Z,101424.91
2022-10-06T17:45:12.868Z,101430.81
2022-10-06T17:47:41.765Z,101419.22
2022-10-06T17:50:11.393Z,101417.53
2022-10-06T17:52:40.239Z,101435.88
2022-10-06T17:55:10.794Z,101412.31
2022-10-06T17:57:40.522Z,101426.13
2022-10-06T18:00:12.408Z,101411.75
2022-10-06T18:02:41.914Z,101423.47
2022-10-06T18:05:12.290Z,101419.38
2022-10-06T18:07:40.507Z,101413.22
2022-10-06T18:10:26.902Z,101411.16
2022-10-06T18:12:55.363Z,101408.28
2022-10-06T18:15:27.379Z,101420.13
2022-10-06T18:17:55.710Z,101408.28
2022-10-06T18:20:30.223Z,101416.50
2022-10-06T18:22:58.786Z,101415.09
2022-10-06T18:25:28.356Z,101424.34
2022-10-06T18:27:56.916Z,101420.78
2022-10-06T18:30:29.533Z,101406.38
2022-10-06T18:35:57.633Z,101406.50
2022-10-06T18:36:14.351Z,101410.63
2022-10-06T18:38:57.011Z,101406.91
2022-10-06T18:41:39.887Z,101402.44
2022-10-06T18:44:09.897Z,101406.16
2022-10-06T18:46:57.630Z,101408.94
2022-10-06T18:49:26.774Z,101413.78
2022-10-06T18:51:58.445Z,101407.78
2022-10-06T18:54:30.404Z,101408.47
2022-10-06T18:57:01.081Z,101418.03
2022-10-06T18:59:31.584Z,101420.94
2022-10-06T19:02:02.436Z,101412.22
2022-10-06T19:04:35.435Z,101426.00
2022-10-06T19:07:04.120Z,101429.03
2022-10-06T19:09:33.508Z,101421.44
2022-10-06T19:12:02.111Z,101423.94
2022-10-06T19:14:32.595Z,101409.84
2022-10-06T19:17:04.374Z,101418.16
2022-10-06T19:19:35.247Z,101413.34
2022-10-06T19:22:05.877Z,101413.22
2022-10-06T19:24:36.728Z,101413.94
2022-10-06T19:27:11.926Z,101430.94
2022-10-06T19:29:45.812Z,101406.47
2022-10-06T19:32:17.954Z,101399.56
2022-10-06T19:34:47.077Z,101398.72
2022-10-06T19:37:16.934Z,101403.28
2022-10-06T19:39:50.412Z,101408.25
2022-10-06T19:42:38.554Z,101404.75
2022-10-06T19:45:08.329Z,101395.47
2022-10-06T19:47:38.939Z,101393.91
2022-10-06T19:50:12.168Z,101382.06
2022-10-06T19:52:41.392Z,101383.78
2022-10-06T19:55:09.780Z,101380.38
2022-10-06T19:57:38.252Z,101390.03
2022-10-06T20:00:10.421Z,101385.19
2022-10-06T20:02:42.763Z,101392.81
2022-10-06T20:05:12.876Z,101370.72
2022-10-06T20:07:41.891Z,101381.84
2022-10-06T20:10:11.946Z,101370.13
2022-10-06T20:12:42.520Z,101378.47
2022-10-06T20:15:13.051Z,101377.63
2022-10-06T20:17:43.720Z,101380.75
2022-10-06T20:20:12.341Z,101370.50
2022-10-06T20:22:40.695Z,101377.25
2022-10-06T20:25:09.443Z,101386.66
2022-10-06T20:27:38.307Z,101384.00
2022-10-06T20:30:07.814Z,101367.25
2022-10-06T20:32:39.046Z,101375.69
2022-10-06T20:35:09.720Z,101376.75
2022-10-06T20:37:42.182Z,101368.66
2022-10-06T20:40:28.507Z,101365.66
2022-10-06T20:42:59.310Z,101370.97
2022-10-06T20:45:27.849Z,101377.13
2022-10-06T20:48:00.433Z,101370.59
2022-10-06T20:50:32.205Z,101364.56
2022-10-06T20:53:00.733Z,101365.44
2022-10-06T20:55:29.077Z,101370.25
2022-10-06T20:57:59.106Z,101370.38
2022-10-06T21:00:30.255Z,101376.97
2022-10-06T21:03:01.358Z,101368.31
2022-10-06T21:05:35.697Z,101355.28
2022-10-06T21:08:06.276Z,101361.41
2022-10-06T21:10:43.269Z,101357.31
2022-10-06T21:13:17.111Z,101363.59
2022-10-06T21:15:47.609Z,101359.00
2022-10-06T21:18:17.920Z,101360.91
2022-10-06T21:20:56.653Z,101363.34
2022-10-06T21:23:30.599Z,101354.19
2022-10-06T21:26:02.842Z,101353.34
2022-10-06T21:28:32.476Z,101356.25
2022-10-06T21:31:05.036Z,101356.56
2022-10-06T21:33:41.013Z,101344.16
2022-10-06T21:36:14.692Z,101346.06
2022-10-06T21:38:48.281Z,101348.28
2022-10-06T21:41:31.600Z,101351.63
2022-10-06T21:44:01.849Z,101354.63
2022-10-06T21:46:33.149Z,101351.56
2022-10-06T21:49:04.540Z,101342.44
2022-10-06T21:51:34.890Z,101333.75
2022-10-06T21:54:03.859Z,101332.78
2022-10-06T21:56:34.353Z,101332.44
2022-10-06T21:59:16.960Z,101339.56
2022-10-06T22:01:46.958Z,101323.38
2022-10-06T22:04:16.243Z,101327.75
2022-10-06T22:06:50.332Z,101316.78
2022-10-06T22:09:21.331Z,101311.56
2022-10-06T22:11:50.452Z,101301.22
2022-10-06T22:14:20.605Z,101291.69
2022-10-06T22:16:49.667Z,101300.59
2022-10-06T22:19:18.891Z,101306.13
2022-10-06T22:21:49.933Z,101300.00
2022-10-06T22:24:20.679Z,101294.47
2022-10-06T22:26:50.767Z,101287.94
2022-10-06T22:29:23.135Z,101297.56
2022-10-06T22:31:52.078Z,101285.03
2022-10-06T22:34:22.161Z,101279.25
2022-10-06T22:36:52.355Z,101279.13
2022-10-06T22:39:21.022Z,101272.63
2022-10-06T22:41:49.412Z,101264.28
2022-10-06T22:44:17.858Z,101268.16
2022-10-06T22:46:46.240Z,101270.47
2022-10-06T22:49:15.044Z,101270.69
2022-10-06T22:51:44.192Z,101262.38
2022-10-06T22:54:19.138Z,101260.69
2022-10-06T22:56:47.603Z,101252.00
2022-10-06T22:59:16.317Z,101260.94
2022-10-06T23:01:45.159Z,101251.78
2022-10-06T23:04:13.846Z,101234.19
2022-10-06T23:06:42.273Z,101236.81
2022-10-06T23:09:11.268Z,101242.63
2022-10-06T23:11:41.737Z,101234.66
2022-10-06T23:14:11.039Z,101220.19
2022-10-06T23:16:39.597Z,101214.63
2022-10-06T23:19:08.041Z,101212.44
2022-10-06T23:21:40.293Z,101215.00
2022-10-06T23:24:09.283Z,101231.03
2022-10-06T23:26:37.812Z,101212.09
2022-10-06T23:29:07.691Z,101219.47
2022-10-06T23:31:36.276Z,101207.88
2022-10-06T23:34:04.746Z,101200.66
2022-10-06T23:36:33.491Z,101210.16
2022-10-06T23:39:02.654Z,101215.75
2022-10-06T23:41:31.160Z,101203.66
2022-10-06T23:43:59.714Z,101197.28
2022-10-06T23:46:29.480Z,101203.56
2022-10-06T23:48:57.974Z,101198.00
2022-10-06T23:51:26.680Z,101189.94
2022-10-06T23:53:54.983Z,101175.22
2022-10-06T23:56:23.353Z,101183.91
2022-10-06T23:58:52.025Z,101170.28
